createdAt,value
2022-08-03T00:00:18.024Z,101074.75
2022-08-03T00:02:58.521Z,101074.31
2022-08-03T00:05:38.735Z,101075.53
2022-08-03T00:08:18.090Z,101078.44
2022-08-03T00:10:59.449Z,101075.13
2022-08-03T00:13:39.587Z,101076.34
2022-08-03T00:16:19.558Z,101072.63
2022-08-03T00:19:04.285Z,101064.31
2022-08-03T00:21:42.236Z,101061.19
2022-08-03T00:24:23.790Z,101064.66
2022-08-03T00:27:01.936Z,101070.44
2022-08-03T00:29:59.327Z,101068.78
2022-08-03T00:32:45.092Z,101065.66
2022-08-03T00:35:36.814Z,101060.69
2022-08-03T00:38:17.528Z,101060.84
2022-08-03T00:41:00.344Z,101058.78
2022-08-03T00:43:40.390Z,101061.66
2022-08-03T00:46:22.188Z,101058.56
2022-08-03T00:49:04.724Z,101056.06
2022-08-03T00:51:46.642Z,101054.59
2022-08-03T00:54:26.140Z,101058.34
2022-08-03T00:57:08.629Z,101051.84
2022-08-03T00:59:49.182Z,101049.56
2022-08-03T01:02:28.667Z,101051.00
2022-08-03T01:05:09.077Z,101049.53
2022-08-03T01:08:01.891Z,101046.22
2022-08-03T01:10:47.688Z,101050.97
2022-08-03T01:14:03.778Z,101049.47
2022-08-03T01:16:37.405Z,101050.72
2022-08-03T01:19:33.278Z,101051.13
2022-08-03T01:22:32.224Z,101054.41
2022-08-03T01:25:16.274Z,101053.78
2022-08-03T01:28:15.372Z,101045.69
2022-08-03T01:30:57.921Z,101052.31
2022-08-03T01:33:42.230Z,101059.56
2022-08-03T01:36:24.443Z,101045.84
2022-08-03T01:39:09.291Z,101045.22
2022-08-03T01:41:52.215Z,101043.94
2022-08-03T01:44:37.372Z,101046.63
2022-08-03T01:47:21.416Z,101051.78
2022-08-03T01:50:02.503Z,101044.94
2022-08-03T01:52:45.382Z,101046.97
2022-08-03T01:55:28.136Z,101045.09
2022-08-03T01:58:09.490Z,101036.59
2022-08-03T02:00:51.363Z,101039.66
2022-08-03T02:03:33.307Z,101036.53
2022-08-03T02:07:01.304Z,101041.69
2022-08-03T02:09:16.418Z,101039.19
2022-08-03T02:11:56.847Z,101033.97
2022-08-03T02:14:40.621Z,101031.66
2022-08-03T02:17:39.899Z,101033.97
2022-08-03T02:20:20.429Z,101041.03
2022-08-03T02:23:01.848Z,101035.00
2022-08-03T02:25:45.843Z,101035.19
2022-08-03T02:28:31.967Z,101032.69
2022-08-03T02:31:14.208Z,101026.69
2022-08-03T02:33:54.734Z,101025.66
2022-08-03T02:36:38.236Z,101028.75
2022-08-03T02:39:21.343Z,101027.06
2022-08-03T02:42:03.345Z,101028.09
2022-08-03T02:44:49.351Z,101023.75
2022-08-03T02:47:53.972Z,101020.44
2022-08-03T02:50:31.810Z,101017.09
2022-08-03T02:53:13.744Z,101019.13
2022-08-03T02:55:54.773Z,101013.94
2022-08-03T02:58:35.397Z,101010.81
2022-08-03T03:01:15.211Z,101013.72
2022-08-03T03:03:56.416Z,101014.94
2022-08-03T03:06:59.163Z,101014.72
2022-08-03T03:09:43.173Z,101008.09
2022-08-03T03:12:25.794Z,101015.72
2022-08-03T03:15:07.271Z,101016.53
2022-08-03T03:17:48.361Z,101022.94
2022-08-03T03:20:32.760Z,101018.75
2022-08-03T03:23:14.011Z,101018.75
2022-08-03T03:25:56.057Z,101019.78
2022-08-03T03:28:37.376Z,101021.66
2022-08-03T03:31:17.531Z,101015.63
2022-08-03T03:33:58.766Z,101016.66
2022-08-03T03:36:38.713Z,101020.56
2022-08-03T03:39:18.552Z,101015.59
2022-08-03T03:41:57.359Z,101012.06
2022-08-03T03:44:38.083Z,101013.72
2022-08-03T03:47:18.239Z,101012.25
2022-08-03T03:50:12.526Z,101013.09
2022-08-03T03:52:52.041Z,101005.41
2022-08-03T03:55:32.008Z,101013.28
2022-08-03T03:58:13.543Z,101014.31
2022-08-03T04:00:53.839Z,101010.16
2022-08-03T04:03:53.580Z,101013.00
2022-08-03T04:06:52.841Z,101013.00
2022-08-03T04:09:49.614Z,101014.66
2022-08-03T04:12:30.319Z,101018.13
2022-08-03T04:15:13.167Z,101017.94
2022-08-03T04:17:55.010Z,101022.09
2022-08-03T04:20:36.696Z,101024.59
2022-08-03T04:23:17.955Z,101016.72
2022-08-03T04:25:58.799Z,101027.47
2022-08-03T04:28:38.926Z,101028.25
2022-08-03T04:31:22.163Z,101029.53
2022-08-03T04:34:01.616Z,101027.69
2022-08-03T04:36:48.604Z,101032.22
2022-08-03T04:39:32.660Z,101034.53
2022-08-03T04:42:13.684Z,101042.03
2022-08-03T04:44:57.699Z,101035.44
2022-08-03T04:47:41.153Z,101038.13
2022-08-03T04:50:21.779Z,101041.06
2022-08-03T04:53:17.489Z,101036.13
2022-08-03T04:56:17.151Z,101038.41
2022-08-03T04:58:57.067Z,101041.38
2022-08-03T05:01:38.826Z,101035.41
2022-08-03T05:04:20.528Z,101042.72
2022-08-03T05:07:12.460Z,101036.56
2022-08-03T05:10:01.305Z,101041.16
2022-08-03T05:12:46.535Z,101040.84
2022-08-03T05:15:24.964Z,101041.72
2022-08-03T05:18:04.427Z,101038.06
2022-08-03T05:20:44.278Z,101042.28
2022-08-03T05:23:23.980Z,101037.38
2022-08-03T05:26:05.100Z,101045.31
2022-08-03T05:28:50.856Z,101037.88
2022-08-03T05:31:32.865Z,101034.28
2022-08-03T05:34:14.309Z,101034.31
2022-08-03T05:36:55.755Z,101033.22
2022-08-03T05:39:34.498Z,101033.69
2022-08-03T05:42:17.718Z,101027.50
2022-08-03T05:45:00.487Z,101031.47
2022-08-03T05:47:41.939Z,101023.38
2022-08-03T05:50:21.488Z,101031.09
2022-08-03T05:53:01.156Z,101038.31
2022-08-03T05:55:39.611Z,101029.59
2022-08-03T05:58:19.116Z,101032.28
2022-08-03T06:00:59.111Z,101028.28
2022-08-03T06:03:38.774Z,101032.81
2022-08-03T06:06:20.916Z,101028.25
2022-08-03T06:09:01.548Z,101037.34
2022-08-03T06:11:43.402Z,101027.50
2022-08-03T06:14:39.304Z,101032.41
2022-08-03T06:17:19.088Z,101030.84
2022-08-03T06:20:01.166Z,101036.19
2022-08-03T06:22:44.511Z,101031.72
2022-08-03T06:25:34.523Z,101037.56
2022-08-03T06:31:15.076Z,101042.81
2022-08-03T06:34:33.789Z,101037.72
2022-08-03T06:36:58.523Z,101045.19
2022-08-03T06:39:41.600Z,101044.09
2022-08-03T06:42:23.407Z,101044.53
2022-08-03T06:45:07.394Z,101039.16
2022-08-03T06:47:47.519Z,101044.44
2022-08-03T06:50:28.109Z,101048.00
2022-08-03T06:53:10.281Z,101047.94
2022-08-03T06:55:59.709Z,101054.25
2022-08-03T06:58:39.474Z,101054.34
2022-08-03T07:01:19.366Z,101054.94
2022-08-03T07:04:00.477Z,101042.84
2022-08-03T07:06:40.544Z,101049.50
2022-08-03T07:09:19.201Z,101056.03
2022-08-03T07:12:06.502Z,101059.00
2022-08-03T07:14:46.317Z,101059.91
2022-08-03T07:17:38.559Z,101054.41
2022-08-03T07:20:18.242Z,101059.84
2022-08-03T07:22:57.460Z,101062.63
2022-08-03T07:25:37.389Z,101067.34
2022-08-03T07:28:20.357Z,101071.69
2022-08-03T07:31:02.689Z,101070.16
2022-08-03T07:33:43.345Z,101075.94
2022-08-03T07:36:24.639Z,101072.34
2022-08-03T07:39:15.912Z,101065.50
2022-08-03T07:42:00.612Z,101063.44
2022-08-03T07:44:42.465Z,101072.63
2022-08-03T07:47:24.798Z,101075.19
2022-08-03T07:50:05.654Z,101068.09
2022-08-03T07:52:53.352Z,101067.88
2022-08-03T07:55:35.088Z,101074.19
2022-08-03T07:58:21.930Z,101078.13
2022-08-03T08:01:04.590Z,101074.63
2022-08-03T08:03:52.387Z,101072.53
2022-08-03T08:06:33.835Z,101072.25
2022-08-03T08:09:15.582Z,101072.53
2022-08-03T08:11:54.880Z,101071.13
2022-08-03T08:14:34.795Z,101073.81
2022-08-03T08:17:16.515Z,101076.91
2022-08-03T08:20:27.929Z,101076.25
2022-08-03T08:23:37.726Z,101073.69
2022-08-03T08:29:55.695Z,101072.97
2022-08-03T08:32:37.357Z,101065.09
2022-08-03T08:35:18.123Z,101061.91
2022-08-03T08:38:05.534Z,101067.63
2022-08-03T08:40:48.802Z,101074.31
2022-08-03T08:43:31.558Z,101070.63
2022-08-03T08:46:12.942Z,101068.13
2022-08-03T08:49:04.952Z,101069.28
2022-08-03T08:51:59.353Z,101072.75
2022-08-03T08:54:45.596Z,101064.81
2022-08-03T08:57:42.353Z,101067.84
2022-08-03T09:00:22.864Z,101073.66
2022-08-03T09:03:02.786Z,101074.38
2022-08-03T09:05:55.825Z,101068.97
2022-08-03T09:08:36.648Z,101063.28
2022-08-03T09:11:22.295Z,101062.28
2022-08-03T09:14:37.255Z,101068.53
2022-08-03T09:17:24.559Z,101058.06
2022-08-03T09:20:09.583Z,101054.78
2022-08-03T09:22:58.969Z,101053.09
2022-08-03T09:25:41.768Z,101054.47
2022-08-03T09:28:56.267Z,101060.78
2022-08-03T09:31:30.631Z,101054.19
2022-08-03T09:34:15.283Z,101050.69
2022-08-03T09:36:58.251Z,101047.94
2022-08-03T09:39:41.949Z,101044.94
2022-08-03T09:42:24.218Z,101050.69
2022-08-03T09:45:05.471Z,101049.78
2022-08-03T09:47:45.922Z,101052.22
2022-08-03T09:50:25.779Z,101046.28
2022-08-03T09:53:04.347Z,101046.00
2022-08-03T09:56:33.467Z,101039.72
2022-08-03T09:58:53.987Z,101049.28
2022-08-03T10:01:35.530Z,101050.97
2022-08-03T10:04:16.976Z,101045.47
2022-08-03T10:07:07.016Z,101040.56
2022-08-03T10:09:56.817Z,101045.72
2022-08-03T10:12:38.252Z,101038.59
2022-08-03T10:16:23.399Z,101044.22
2022-08-03T10:18:19.071Z,101037.41
2022-08-03T10:21:03.112Z,101029.56
2022-08-03T10:23:43.720Z,101032.25
2022-08-03T10:26:37.844Z,101032.84
2022-08-03T10:29:24.597Z,101024.88
2022-08-03T10:32:06.474Z,101024.56
2022-08-03T10:34:48.571Z,101023.41
2022-08-03T10:37:29.564Z,101026.69
2022-08-03T10:40:16.138Z,101020.78
2022-08-03T10:43:21.760Z,101016.88
2022-08-03T10:46:03.455Z,101016.25
2022-08-03T10:48:43.439Z,101018.41
2022-08-03T10:51:24.335Z,101013.34
2022-08-03T10:54:04.633Z,101005.91
2022-08-03T10:57:13.485Z,101014.34
2022-08-03T11:00:04.025Z,101020.03
2022-08-03T11:03:06.471Z,101005.13
2022-08-03T11:05:47.286Z,101004.97
2022-08-03T11:08:32.007Z,101009.53
2022-08-03T11:11:28.462Z,100999.41
2022-08-03T11:14:10.163Z,101005.44
2022-08-03T11:16:53.080Z,101002.47
2022-08-03T11:19:57.538Z,100997.09
2022-08-03T11:22:50.913Z,100985.25
2022-08-03T11:25:34.832Z,100990.94
2022-08-03T11:28:30.918Z,100989.28
2022-08-03T11:31:56.762Z,100993.47
2022-08-03T11:35:10.789Z,100988.38
2022-08-03T11:38:11.885Z,100986.06
2022-08-03T11:40:52.806Z,100996.91
2022-08-03T11:43:47.497Z,100996.59
2022-08-03T11:46:29.822Z,100985.34
2022-08-03T11:49:12.585Z,100984.03
2022-08-03T11:51:55.407Z,100990.84
2022-08-03T11:54:37.566Z,100989.81
2022-08-03T11:59:11.310Z,100985.69
2022-08-03T12:00:35.563Z,100986.78
2022-08-03T12:03:17.061Z,100982.59
2022-08-03T12:05:56.550Z,100979.72
2022-08-03T12:08:36.147Z,100987.00
2022-08-03T12:11:18.885Z,100987.19
2022-08-03T12:14:49.496Z,100975.69
2022-08-03T12:16:59.646Z,100979.72
2022-08-03T12:19:44.542Z,100981.34
2022-08-03T12:22:33.464Z,100968.22
2022-08-03T12:25:38.535Z,100971.13
2022-08-03T12:28:36.266Z,100970.91
2022-08-03T12:31:18.544Z,100968.06
2022-08-03T12:34:02.797Z,100964.88
2022-08-03T12:36:53.135Z,100972.56
2022-08-03T12:39:33.249Z,100975.19
2022-08-03T12:42:13.077Z,100962.84
2022-08-03T12:44:56.379Z,100961.69
2022-08-03T12:47:57.037Z,100964.56
2022-08-03T12:50:37.699Z,100965.09
2022-08-03T12:53:29.913Z,100963.19
2022-08-03T12:57:00.325Z,100970.34
2022-08-03T12:59:45.127Z,100961.41
2022-08-03T13:02:35.128Z,100969.09
2022-08-03T13:05:16.756Z,100960.13
2022-08-03T13:07:56.331Z,100956.53
2022-08-03T13:10:35.742Z,100952.00
2022-08-03T13:13:20.687Z,100950.31
2022-08-03T13:16:00.142Z,100955.72
2022-08-03T13:18:39.931Z,100952.03
2022-08-03T13:21:22.056Z,100947.00
2022-08-03T13:24:05.005Z,100950.84
2022-08-03T13:26:42.964Z,100952.34
2022-08-03T13:29:34.227Z,100954.91
2022-08-03T13:32:14.934Z,100951.53
2022-08-03T13:35:16.475Z,100947.19
2022-08-03T13:37:55.985Z,100945.34
2022-08-03T13:40:38.382Z,100936.34
2022-08-03T13:43:35.918Z,100928.41
2022-08-03T13:46:17.648Z,100929.03
2022-08-03T13:49:00.196Z,100930.66
2022-08-03T13:51:39.904Z,100934.34
2022-08-03T13:54:21.447Z,100925.69
2022-08-03T13:58:18.928Z,100931.81
2022-08-03T14:00:28.072Z,100922.13
2022-08-03T14:03:14.267Z,100926.50
2022-08-03T14:05:54.692Z,100923.41
2022-08-03T14:08:36.543Z,100921.31
2022-08-03T14:11:18.304Z,100917.75
2022-08-03T14:14:00.853Z,100918.97
2022-08-03T14:16:40.406Z,100911.56
2022-08-03T14:19:25.515Z,100923.13
2022-08-03T14:22:06.910Z,100918.13
2022-08-03T14:24:47.719Z,100917.38
2022-08-03T14:27:30.120Z,100910.06
2022-08-03T14:30:13.305Z,100910.38
2022-08-03T14:33:05.389Z,100912.44
2022-08-03T14:35:45.265Z,100910.09
2022-08-03T14:38:24.992Z,100921.47
2022-08-03T14:41:06.734Z,100918.91
2022-08-03T14:44:09.012Z,100909.84
2022-08-03T14:46:49.033Z,100917.09
2022-08-03T14:50:36.250Z,100906.25
2022-08-03T14:52:30.449Z,100906.38
2022-08-03T14:55:11.857Z,100907.25
2022-08-03T14:57:53.234Z,100900.84
2022-08-03T15:00:46.996Z,100901.88
2022-08-03T15:03:27.766Z,100898.09
2022-08-03T15:06:08.961Z,100903.78
2022-08-03T15:09:22.543Z,100899.34
2022-08-03T15:12:03.000Z,100896.75
2022-08-03T15:14:42.832Z,100896.06
2022-08-03T15:17:24.617Z,100894.94
2022-08-03T15:20:27.810Z,100890.91
2022-08-03T15:23:04.766Z,100891.78
2022-08-03T15:26:29.636Z,100888.13
2022-08-03T15:28:47.092Z,100880.97
2022-08-03T15:31:26.693Z,100875.59
2022-08-03T15:34:06.385Z,100882.78
2022-08-03T15:36:59.551Z,100880.78
2022-08-03T15:39:59.089Z,100882.72
2022-08-03T15:42:39.891Z,100882.78
2022-08-03T15:45:21.804Z,100870.75
2022-08-03T15:48:02.685Z,100874.91
2022-08-03T15:50:55.985Z,100873.84
2022-08-03T15:53:34.807Z,100875.34
2022-08-03T15:56:18.947Z,100876.97
2022-08-03T15:59:12.045Z,100879.19
2022-08-03T16:02:11.024Z,100872.97
2022-08-03T16:04:49.441Z,100868.06
2022-08-03T16:08:02.641Z,100873.91
2022-08-03T16:10:43.706Z,100878.81
2022-08-03T16:13:23.368Z,100875.78
2022-08-03T16:16:23.848Z,100874.97
2022-08-03T16:19:05.647Z,100874.38
2022-08-03T16:21:48.823Z,100876.59
2022-08-03T16:24:29.691Z,100873.34
2022-08-03T16:27:56.890Z,100871.41
2022-08-03T16:30:26.716Z,100870.97
2022-08-03T16:33:06.543Z,100864.94
2022-08-03T16:35:45.229Z,100865.75
2022-08-03T16:38:24.745Z,100870.44
2022-08-03T16:41:04.680Z,100872.88
2022-08-03T16:43:46.152Z,100871.81
2022-08-03T16:46:24.393Z,100870.72
2022-08-03T16:49:06.754Z,100872.38
2022-08-03T16:51:50.251Z,100869.69
2022-08-03T16:54:33.485Z,100879.06
2022-08-03T16:57:14.460Z,100876.09
2022-08-03T16:59:54.221Z,100873.41
2022-08-03T17:02:34.179Z,100876.50
2022-08-03T17:05:17.182Z,100876.28
2022-08-03T17:08:01.021Z,100879.06
2022-08-03T17:10:45.597Z,100868.44
2022-08-03T17:13:38.820Z,100872.66
2022-08-03T17:16:22.227Z,100874.56
2022-08-03T17:19:06.520Z,100865.84
2022-08-03T17:21:50.797Z,100878.28
2022-08-03T17:24:33.432Z,100878.34
2022-08-03T17:27:23.156Z,100879.19
2022-08-03T17:30:19.069Z,100872.91
2022-08-03T17:33:02.844Z,100881.16
2022-08-03T17:35:43.723Z,100882.09
2022-08-03T17:38:25.622Z,100872.50
2022-08-03T17:41:11.558Z,100870.91
2022-08-03T17:44:15.309Z,100879.69
2022-08-03T17:46:53.376Z,100877.81
2022-08-03T17:49:33.336Z,100883.09
2022-08-03T17:52:27.608Z,100875.16
2022-08-03T17:55:55.380Z,100880.09
2022-08-03T17:58:15.145Z,100881.50
2022-08-03T18:04:21.126Z,100884.78
2022-08-03T18:07:12.485Z,100886.47
2022-08-03T18:10:04.168Z,100885.34
2022-08-03T18:12:51.862Z,100886.19
2022-08-03T18:15:35.961Z,100879.88
2022-08-03T18:18:32.297Z,100892.47
2022-08-03T18:21:17.216Z,100883.13
2022-08-03T18:24:00.782Z,100883.69
2022-08-03T18:26:48.523Z,100893.50
2022-08-03T18:29:29.945Z,100892.94
2022-08-03T18:35:13.858Z,100891.25
2022-08-03T18:37:54.453Z,100892.81
2022-08-03T18:40:37.235Z,100898.25
2022-08-03T18:43:46.758Z,100886.72
2022-08-03T18:46:37.337Z,100891.84
2022-08-03T18:49:30.175Z,100892.09
2022-08-03T18:52:16.785Z,100890.41
2022-08-03T18:55:12.553Z,100894.72
2022-08-03T18:58:06.804Z,100897.88
2022-08-03T19:00:54.663Z,100890.16
2022-08-03T19:03:41.530Z,100900.47
2022-08-03T19:06:25.198Z,100896.50
2022-08-03T19:09:09.430Z,100903.03
2022-08-03T19:12:14.534Z,100901.50
2022-08-03T19:15:00.528Z,100904.38
2022-08-03T19:17:52.829Z,100919.34
2022-08-03T19:20:34.819Z,100908.00
2022-08-03T19:23:15.816Z,100915.00
2022-08-03T19:25:57.093Z,100924.31
2022-08-03T19:28:39.482Z,100913.28
2022-08-03T19:31:18.628Z,100920.22
2022-08-03T19:34:03.523Z,100918.22
2022-08-03T19:36:56.288Z,100921.34
2022-08-03T19:39:37.609Z,100922.38
2022-08-03T19:42:25.420Z,100920.47
2022-08-03T19:45:14.121Z,100916.53
2022-08-03T19:47:59.912Z,100923.47
2022-08-03T19:50:44.517Z,100926.63
2022-08-03T19:53:35.199Z,100931.06
2022-08-03T19:56:19.295Z,100924.66
2022-08-03T19:59:02.893Z,100929.75
2022-08-03T20:01:55.569Z,100923.31
2022-08-03T20:04:35.581Z,100921.09
2022-08-03T20:07:20.636Z,100923.03
2022-08-03T20:10:06.536Z,100927.81
2022-08-03T20:12:46.672Z,100922.25
2022-08-03T20:15:31.024Z,100927.84
2022-08-03T20:18:16.638Z,100922.56
2022-08-03T20:21:00.907Z,100926.50
2022-08-03T20:24:01.779Z,100923.19
2022-08-03T20:26:55.554Z,100925.00
2022-08-03T20:30:05.342Z,100923.81
2022-08-03T20:32:42.365Z,100928.56
2022-08-03T20:35:21.600Z,100927.88
2022-08-03T20:37:59.640Z,100931.03
2022-08-03T20:40:39.288Z,100931.44
2022-08-03T20:43:20.452Z,100940.31
2022-08-03T20:46:31.987Z,100931.22
2022-08-03T20:49:04.309Z,100949.88
2022-08-03T20:52:06.933Z,100937.75
2022-08-03T20:54:58.157Z,100935.72
2022-08-03T20:57:40.425Z,100936.78
2022-08-03T21:00:22.174Z,100936.69
2022-08-03T21:03:01.649Z,100940.13
2022-08-03T21:05:48.374Z,100939.78
2022-08-03T21:08:33.799Z,100937.41
2022-08-03T21:11:18.720Z,100934.00
2022-08-03T21:12:56.255Z,100887.00
2022-08-03T21:12:58.266Z,100889.06
2022-08-03T21:14:14.808Z,100937.84
2022-08-03T21:16:54.150Z,100944.94
2022-08-03T21:19:33.626Z,100943.28
2022-08-03T21:22:14.468Z,100945.19
2022-08-03T21:24:57.195Z,100942.69
2022-08-03T21:27:38.003Z,100942.56
2022-08-03T21:30:21.566Z,100939.72
2022-08-03T21:33:00.451Z,100926.03
2022-08-03T21:36:01.976Z,100938.03
2022-08-03T21:38:44.705Z,100929.19
2022-08-03T21:41:36.115Z,100930.13
2022-08-03T21:44:18.354Z,100935.19
2022-08-03T21:47:12.143Z,100932.56
2022-08-03T21:50:08.884Z,100938.22
2022-08-03T21:52:50.455Z,100939.75
2022-08-03T21:55:31.972Z,100935.38
2022-08-03T21:58:15.091Z,100939.13
2022-08-03T22:00:55.380Z,100937.94
2022-08-03T22:03:53.017Z,100938.84
2022-08-03T22:06:34.638Z,100934.38
2022-08-03T22:09:13.964Z,100935.50
2022-08-03T22:11:55.873Z,100931.00
2022-08-03T22:14:49.955Z,100935.22
2022-08-03T22:17:54.638Z,100935.91
2022-08-03T22:20:36.889Z,100934.47
2022-08-03T22:23:19.580Z,100938.72
2022-08-03T22:26:14.839Z,100936.22
2022-08-03T22:28:57.238Z,100940.22
2022-08-03T22:31:57.979Z,100939.41
2022-08-03T22:34:37.770Z,100935.50
2022-08-03T22:37:21.016Z,100938.63
2022-08-03T22:40:07.737Z,100935.78
2022-08-03T22:42:49.482Z,100940.84
2022-08-03T22:46:07.818Z,100943.00
2022-08-03T22:48:33.496Z,100946.59
2022-08-03T22:51:13.480Z,100944.72
2022-08-03T22:53:53.112Z,100944.34
2022-08-03T22:56:32.848Z,100938.78
2022-08-03T22:59:40.283Z,100946.13
2022-08-03T23:02:21.667Z,100944.34
2022-08-03T23:05:05.540Z,100941.63
2022-08-03T23:07:50.320Z,100945.84
2022-08-03T23:10:31.737Z,100946.41
2022-08-03T23:13:14.020Z,100945.00
2022-08-03T23:15:58.899Z,100954.38
2022-08-03T23:18:38.812Z,100950.84
2022-08-03T23:21:53.580Z,100958.34
2022-08-03T23:24:27.506Z,100951.34
2022-08-03T23:27:11.258Z,100960.28
2022-08-03T23:30:08.184Z,100960.16
2022-08-03T23:32:47.604Z,100963.28
2022-08-03T23:36:29.898Z,100956.41
2022-08-03T23:39:00.276Z,100959.97
2022-08-03T23:41:40.845Z,100950.22
2022-08-03T23:44:22.098Z,100947.94
2022-08-03T23:47:02.598Z,100942.38
2022-08-03T23:49:45.254Z,100934.88
2022-08-03T23:52:30.525Z,100935.91
2022-08-03T23:55:16.024Z,100941.75
2022-08-03T23:58:03.049Z,100940.53
